createdAt,value
2023-05-01T00:05:37.020Z,8.04
2023-05-01T00:10:25.126Z,8.04
2023-05-01T00:15:32.939Z,8.04
2023-05-01T00:21:20.256Z,8.04
2023-05-01T00:27:03.618Z,8.04
2023-05-01T00:32:27.169Z,8.04
2023-05-01T00:37:50.479Z,8.04
2023-05-01T00:43:29.379Z,8.04
2023-05-01T00:49:06.517Z,8.47
2023-05-01T00:58:14.701Z,8.47
2023-05-01T00:59:10.106Z,8.47
2023-05-01T01:04:59.513Z,7.59
2023-05-01T01:10:46.311Z,8.00
2023-05-01T01:16:29.193Z,8.00
2023-05-01T01:22:11.715Z,8.00
2023-05-01T01:28:03.166Z,8.41
2023-05-01T01:33:45.791Z,8.41
2023-05-01T01:56:22.985Z,8.41
2023-05-01T02:08:26.078Z,7.91
2023-05-01T02:14:01.106Z,7.91
2023-05-01T02:19:40.895Z,7.91
2023-05-01T02:25:03.853Z,7.91
2023-05-01T02:30:23.547Z,7.91
2023-05-01T02:35:42.697Z,7.91
2023-05-01T02:40:55.050Z,8.29
2023-05-01T02:47:47.281Z,8.29
2023-05-01T02:51:34.978Z,8.29
2023-05-01T02:56:37.225Z,7.91
2023-05-01T03:01:59.863Z,8.29
2023-05-01T03:07:10.456Z,8.29
2023-05-01T03:12:18.286Z,7.40
2023-05-01T03:17:25.834Z,7.40
2023-05-01T03:22:35.554Z,7.40
2023-05-01T03:27:43.049Z,7.40
2023-05-01T03:33:14.524Z,7.40
2023-05-01T03:38:25.466Z,7.40
2023-05-01T03:43:33.015Z,7.40
2023-05-01T03:48:40.700Z,7.40
2023-05-01T03:54:28.791Z,7.40
2023-05-01T03:59:37.415Z,7.40
2023-05-01T04:04:44.989Z,7.40
2023-05-01T04:09:58.478Z,7.40
2023-05-01T04:15:05.992Z,7.40
2023-05-01T04:20:13.392Z,7.40
2023-05-01T04:25:21.130Z,7.40
2023-05-01T04:30:28.673Z,7.40
2023-05-01T04:35:36.319Z,7.40
2023-05-01T04:40:55.008Z,7.02
2023-05-01T04:46:02.576Z,7.02
2023-05-01T04:51:10.111Z,7.02
2023-05-01T04:56:22.354Z,7.02
2023-05-01T05:01:30.108Z,7.02
2023-05-01T05:07:15.611Z,7.02
2023-05-01T05:12:23.501Z,7.02
2023-05-01T05:18:06.257Z,7.02
2023-05-01T05:23:14.025Z,7.40
2023-05-01T05:28:29.046Z,7.40
2023-05-01T05:33:45.538Z,7.40
2023-05-01T05:38:49.466Z,7.40
2023-05-01T05:44:36.713Z,7.40
2023-05-01T05:50:05.865Z,7.40
2023-05-01T05:56:07.591Z,7.40
2023-05-01T06:00:30.834Z,7.40
2023-05-01T06:05:38.393Z,7.40
2023-05-01T06:10:46.214Z,7.40
2023-05-01T06:15:54.074Z,7.40
2023-05-01T06:21:10.471Z,7.40
2023-05-01T06:26:53.230Z,7.40
2023-05-01T06:32:03.756Z,7.40
2023-05-01T06:37:11.350Z,7.40
2023-05-01T06:42:18.837Z,7.40
2023-05-01T06:47:26.363Z,7.40
2023-05-01T06:52:33.548Z,7.40
2023-05-01T06:57:40.817Z,7.77
2023-05-01T07:02:48.212Z,7.40
2023-05-01T07:08:01.330Z,7.40
2023-05-01T07:13:02.678Z,7.40
2023-05-01T07:18:10.005Z,7.40
2023-05-01T07:23:17.227Z,7.40
2023-05-01T07:28:24.502Z,7.40
2023-05-01T07:33:31.778Z,7.40
2023-05-01T07:38:39.110Z,7.40
2023-05-01T07:43:46.580Z,7.40
2023-05-01T07:48:53.874Z,7.40
2023-05-01T07:54:01.033Z,7.40
2023-05-01T07:59:08.290Z,7.77
2023-05-01T08:04:15.636Z,7.40
2023-05-01T08:09:22.888Z,7.40
2023-05-01T08:14:30.298Z,7.77
2023-05-01T08:19:37.672Z,7.40
2023-05-01T08:24:44.970Z,7.40
2023-05-01T08:29:52.187Z,6.88
2023-05-01T08:34:59.523Z,6.88
2023-05-01T08:40:06.572Z,6.88
2023-05-01T08:45:13.747Z,6.88
2023-05-01T08:50:20.963Z,6.88
2023-05-01T08:55:28.241Z,6.88
2023-05-01T09:00:35.425Z,7.77
2023-05-01T09:05:42.746Z,7.77
2023-05-01T09:10:50.022Z,7.77
2023-05-01T09:15:57.369Z,7.77
2023-05-01T09:21:04.987Z,7.77
2023-05-01T09:26:12.128Z,8.14
2023-05-01T09:31:19.424Z,7.40
2023-05-01T09:36:26.844Z,7.40
2023-05-01T09:41:33.884Z,8.29
2023-05-01T09:46:41.232Z,7.91
2023-05-01T09:51:48.401Z,7.91
2023-05-01T09:56:55.818Z,7.91
2023-05-01T10:02:03.301Z,7.91
2023-05-01T10:07:10.608Z,7.52
2023-05-01T10:12:17.982Z,7.52
2023-05-01T10:17:25.380Z,8.41
2023-05-01T10:22:32.615Z,8.41
2023-05-01T10:27:39.897Z,8.41
2023-05-01T10:32:47.250Z,8.80
2023-05-01T10:37:54.481Z,8.41
2023-05-01T10:43:01.745Z,8.41
2023-05-01T10:48:09.196Z,8.41
2023-05-01T10:53:16.322Z,8.41
2023-05-01T10:58:23.594Z,8.80
2023-05-01T11:03:30.875Z,8.80
2023-05-01T11:08:38.225Z,8.41
2023-05-01T11:13:45.525Z,8.80
2023-05-01T11:18:52.736Z,8.80
2023-05-01T11:24:00.050Z,8.80
2023-05-01T11:29:07.303Z,8.80
2023-05-01T11:34:14.757Z,8.80
2023-05-01T11:39:21.983Z,8.80
2023-05-01T11:44:29.265Z,9.29
2023-05-01T11:49:36.583Z,8.80
2023-05-01T11:54:43.985Z,9.29
2023-05-01T11:59:52.373Z,9.29
2023-05-01T12:05:00.100Z,9.29
2023-05-01T12:10:07.021Z,9.29
2023-05-01T12:15:14.258Z,9.29
2023-05-01T12:20:21.452Z,8.89
2023-05-01T12:25:28.727Z,8.89
2023-05-01T12:30:35.946Z,9.29
2023-05-01T12:35:43.248Z,8.89
2023-05-01T12:40:50.526Z,8.89
2023-05-01T12:45:57.847Z,8.89
2023-05-01T12:51:05.089Z,8.89
2023-05-01T12:56:12.592Z,8.89
2023-05-01T13:01:19.915Z,8.89
2023-05-01T13:06:30.131Z,8.89
2023-05-01T13:11:35.105Z,9.29
2023-05-01T13:16:42.525Z,9.29
2023-05-01T13:21:52.808Z,9.29
2023-05-01T13:27:00.485Z,8.89
2023-05-01T13:32:10.126Z,8.89
2023-05-01T13:37:17.289Z,8.89
2023-05-01T13:42:24.578Z,8.89
2023-05-01T13:47:31.837Z,8.89
2023-05-01T13:52:39.213Z,8.89
2023-05-01T13:57:46.525Z,8.89
2023-05-01T14:02:53.977Z,8.89
2023-05-01T14:08:01.100Z,8.89
2023-05-01T14:13:08.358Z,8.89
2023-05-01T14:18:15.647Z,8.89
2023-05-01T14:23:22.868Z,8.89
2023-05-01T14:28:30.167Z,8.89
2023-05-01T14:33:37.396Z,9.29
2023-05-01T14:38:44.598Z,8.89
2023-05-01T14:43:51.920Z,8.89
2023-05-01T14:48:59.173Z,8.89
2023-05-01T14:54:06.434Z,8.89
2023-05-01T14:59:13.785Z,8.89
2023-05-01T15:04:21.247Z,8.89
2023-05-01T15:09:28.745Z,9.29
2023-05-01T15:14:36.097Z,9.29
2023-05-01T15:19:43.391Z,9.29
2023-05-01T15:24:50.702Z,9.29
2023-05-01T15:29:58.002Z,9.29
2023-05-01T15:35:05.306Z,9.29
2023-05-01T15:40:12.635Z,9.29
2023-05-01T15:45:20.054Z,9.69
2023-05-01T15:50:27.230Z,8.80
2023-05-01T15:55:34.506Z,8.80
2023-05-01T16:00:41.920Z,8.41
2023-05-01T16:05:49.149Z,8.80
2023-05-01T16:10:56.380Z,8.80
2023-05-01T16:16:03.640Z,9.69
2023-05-01T16:21:11.007Z,9.69
2023-05-01T16:26:18.320Z,9.69
2023-05-01T16:31:27.559Z,9.69
2023-05-01T16:36:33.214Z,9.69
2023-05-01T16:41:40.486Z,9.69
2023-05-01T16:46:48.480Z,9.69
2023-05-01T16:51:55.648Z,9.69
2023-05-01T16:57:02.970Z,9.69
2023-05-01T17:02:12.062Z,9.69
2023-05-01T17:07:19.344Z,9.69
2023-05-01T17:12:26.624Z,9.69
2023-05-01T17:17:44.395Z,9.29
2023-05-01T17:22:42.778Z,9.69
2023-05-01T17:27:52.217Z,9.69
2023-05-01T17:33:02.448Z,9.69
2023-05-01T17:38:09.852Z,9.29
2023-05-01T17:43:17.251Z,9.69
2023-05-01T17:48:24.577Z,9.29
2023-05-01T17:53:35.270Z,9.69
2023-05-01T17:58:57.943Z,9.29
2023-05-01T18:04:05.582Z,9.29
2023-05-01T18:09:13.314Z,9.29
2023-05-01T18:14:20.519Z,9.29
2023-05-01T18:19:28.283Z,9.29
2023-05-01T18:24:35.738Z,9.29
2023-05-01T18:29:42.947Z,9.29
2023-05-01T18:34:50.400Z,9.29
2023-05-01T18:39:58.064Z,9.29
2023-05-01T18:45:05.247Z,8.89
2023-05-01T18:50:13.043Z,8.89
2023-05-01T18:55:20.584Z,8.89
2023-05-01T19:00:28.090Z,8.89
2023-05-01T19:05:35.722Z,8.89
2023-05-01T19:10:43.858Z,8.89
2023-05-01T19:15:51.229Z,8.89
2023-05-01T19:20:58.577Z,8.89
2023-05-01T19:26:06.104Z,8.89
2023-05-01T19:31:14.808Z,8.89
2023-05-01T19:36:21.558Z,8.89
2023-05-01T19:41:29.269Z,8.89
2023-05-01T19:46:36.975Z,8.89
2023-05-01T19:51:44.722Z,8.89
2023-05-01T19:56:52.196Z,8.89
2023-05-01T20:02:01.245Z,8.89
2023-05-01T20:07:07.158Z,8.89
2023-05-01T20:12:14.461Z,8.89
2023-05-01T20:17:22.154Z,8.89
2023-05-01T20:22:29.837Z,8.89
2023-05-01T20:27:37.389Z,8.47
2023-05-01T20:32:44.877Z,8.47
2023-05-01T20:37:52.426Z,8.47
2023-05-01T20:42:59.857Z,8.47
2023-05-01T20:48:07.732Z,8.47
2023-05-01T20:53:15.147Z,8.47
2023-05-01T20:58:22.259Z,8.47
2023-05-01T21:03:29.733Z,9.35
2023-05-01T21:08:36.903Z,9.35
2023-05-01T21:13:44.319Z,9.35
2023-05-01T21:18:51.553Z,8.92
2023-05-01T21:23:59.110Z,8.92
2023-05-01T21:29:06.384Z,8.92
2023-05-01T21:34:13.640Z,8.92
2023-05-01T21:39:20.861Z,8.92
2023-05-01T21:44:28.026Z,8.92
2023-05-01T21:49:35.325Z,8.92
2023-05-01T21:54:42.742Z,8.92
2023-05-01T21:59:50.005Z,8.92
2023-05-01T22:04:57.208Z,8.92
2023-05-01T22:10:04.532Z,8.92
2023-05-01T22:15:11.957Z,8.92
2023-05-01T22:20:19.363Z,8.92
2023-05-01T22:25:26.772Z,8.92
2023-05-01T22:30:34.081Z,8.92
2023-05-01T22:35:41.339Z,8.92
2023-05-01T22:40:48.643Z,8.92
2023-05-01T22:45:57.565Z,8.48
2023-05-01T22:51:15.290Z,8.48
2023-05-01T22:57:09.213Z,8.48
2023-05-01T23:08:39.911Z,8.48
2023-05-01T23:20:44.257Z,8.48
2023-05-01T23:32:14.397Z,8.92
2023-05-01T23:38:56.242Z,8.04
2023-05-01T23:44:29.857Z,8.04
2023-05-01T23:50:17.235Z,8.04
2023-05-01T23:55:40.885Z,8.04
